TFM - Tactical Decision Aid
ID: Runway Winds: CIG/VIS Threshold:

KFLL - Ft Lauderdale-Hollyw, FL, US

Updated at: 1152 UTC 15 Jul 2020
Latest TAF at: 1121 UTC 15 Jul 2020

TAF Board

Time1053Z 15/12Z 15/13Z 15/14Z 15/15Z 15/16Z 15/17Z 15/18Z 15/19Z 15/20Z 15/21Z 15/22Z 15/23Z 16/00Z>>
Type OBS PRVL PRVL PRVL PRVL PRVL PRVL PRVL PRVL PRVL PRVL PRVL PRVL PRVL
VIS 10 >6 >6 >6 >6 >6 >6 >6 >6 >6 >6 >6 >6 >6
CIG -- -- -- -- -- -- -- -- -- -- -- -- -- --
Cover SCT SCT SCT SCT SCT SCT SCT SCT SCT SCT SCT SCT SCT SCT
FltCat VFR VFR VFR VFR VFR VFR VFR VFR VFR VFR VFR VFR VFR VFR
WX -- -- -- -- -- -- VCTS VCTS VCTS VCTS VCTS VCTS VCTS VCTS
WDir VRB VRB VRB VRB VRB VRB 100 100 100 100 100 100 100 100
WSpd 0 5 5 5 5 5 10 10 10 10 10 10 10 10
WGst -- -- -- -- -- -- -- -- -- -- -- -- -- --

TDA Impact Legend

  None Marginal Slight Moderate High
Visibility (sm) >5 3≤X≤5 2≤X<3 0.75≤X<2 <0.75
Ceiling (100 ft) >30 10≤X≤30 6≤X<10 3≤X<6 <3
Wind Speed (kt) <15 15≤X<25 25≤X<30 ≥30
Wind Gust (kt) <15 15≤X<25 25≤X<35 ≥35
Weather No Wx Reported VCTS -TS,-FZRA TS,FZRA +TS,+FZRA
TAF
KFLL 151121Z 1512/1618 VRB05KT P6SM FEW030 SCT200
  FM151700 10010KT P6SM VCTS SCT035CB SCT250
  FM160200 VRB04KT P6SM SCT030 SCT250
  FM161400 07008KT P6SM FEW035 SCT250
  FM161700 09010KT P6SM VCTS SCT035CB SCT250


METAR
KFLL 151053Z 00000KT 10SM FEW025 SCT250 27/24 A3003 RMK AO2 SLP168 T02720244
KFLL 150953Z 00000KT 10SM FEW200 27/24 A3002 RMK AO2 SLP164 T02670239
KFLL 150853Z 00000KT 10SM CLR 27/23 A3001 RMK AO2 SLP161 T02670233 55008

Radar Display
Forecast Discussion